sensor_id;sensor_type;location;lat;lon;timestamp;pressure;altitude;pressure_sealevel;temperature;humidity
62725;BME280;49026;52.600;4.694;2023-02-14T00:02:14;103519.09;;;2.53;75.74
62725;BME280;49026;52.600;4.694;2023-02-14T00:04:45;103518.22;;;2.53;76.67
62725;BME280;49026;52.600;4.694;2023-02-14T00:07:12;103519.09;;;2.53;75.77
62725;BME280;49026;52.600;4.694;2023-02-14T00:09:40;103528.56;;;2.51;76.15
62725;BME280;49026;52.600;4.694;2023-02-14T00:12:05;103523.38;;;2.51;76.10
62725;BME280;49026;52.600;4.694;2023-02-14T00:14:31;103520.66;;;2.48;76.11
62725;BME280;49026;52.600;4.694;2023-02-14T00:17:16;103522.19;;;2.43;75.69
62725;BME280;49026;52.600;4.694;2023-02-14T00:19:41;103515.97;;;2.38;76.50
62725;BME280;49026;52.600;4.694;2023-02-14T00:22:09;103511.38;;;2.31;76.03
62725;BME280;49026;52.600;4.694;2023-02-14T00:24:34;103511.09;;;2.23;75.89
62725;BME280;49026;52.600;4.694;2023-02-14T00:27:00;103513.63;;;2.21;76.35
62725;BME280;49026;52.600;4.694;2023-02-14T00:29:29;103510.03;;;2.18;76.75
62725;BME280;49026;52.600;4.694;2023-02-14T00:31:58;103503.97;;;2.17;76.44
62725;BME280;49026;52.600;4.694;2023-02-14T00:34:24;103510.03;;;2.18;75.80
62725;BME280;49026;52.600;4.694;2023-02-14T00:36:53;103508.19;;;2.15;75.88
62725;BME280;49026;52.600;4.694;2023-02-14T00:39:20;103496.88;;;2.13;75.70
62725;BME280;49026;52.600;4.694;2023-02-14T00:41:48;103503.78;;;2.13;76.41
62725;BME280;49026;52.600;4.694;2023-02-14T00:44:13;103496.88;;;2.13;76.51
62725;BME280;49026;52.600;4.694;2023-02-14T00:46:42;103495.13;;;2.12;76.17
62725;BME280;49026;52.600;4.694;2023-02-14T00:49:12;103491.56;;;2.10;75.90
62725;BME280;49026;52.600;4.694;2023-02-14T00:51:38;103494.03;;;2.07;75.91
62725;BME280;49026;52.600;4.694;2023-02-14T00:54:03;103487.91;;;2.05;76.54
62725;BME280;49026;52.600;4.694;2023-02-14T00:56:31;103486.16;;;2.04;76.40
62725;BME280;49026;52.600;4.694;2023-02-14T00:58:56;103482.84;;;2.08;76.53
62725;BME280;49026;52.600;4.694;2023-02-14T01:01:21;103488.03;;;2.08;76.59
62725;BME280;49026;52.600;4.694;2023-02-14T01:03:49;103487.22;;;2.09;76.73
62725;BME280;49026;52.600;4.694;2023-02-14T01:06:15;103481.13;;;2.09;76.07
62725;BME280;49026;52.600;4.694;2023-02-14T01:08:40;103481.06;;;2.07;76.33
62725;BME280;49026;52.600;4.694;2023-02-14T01:11:18;103479.31;;;2.06;76.60
62725;BME280;49026;52.600;4.694;2023-02-14T01:13:44;103477.53;;;2.05;76.28
62725;BME280;49026;52.600;4.694;2023-02-14T01:16:13;103480.00;;;2.02;75.81
62725;BME280;49026;52.600;4.694;2023-02-14T01:18:38;103480.88;;;2.01;76.32
62725;BME280;49026;52.600;4.694;2023-02-14T01:21:12;103479.94;;;1.99;75.91
62725;BME280;49026;52.600;4.694;2023-02-14T01:23:38;103475.44;;;1.95;75.91
62725;BME280;49026;52.600;4.694;2023-02-14T01:26:05;103477.03;;;1.91;75.87
62725;BME280;49026;52.600;4.694;2023-02-14T01:28:33;103478.63;;;1.88;76.58
62725;BME280;49026;52.600;4.694;2023-02-14T01:31:09;103472.50;;;1.85;76.88
62725;BME280;49026;52.600;4.694;2023-02-14T01:33:34;103476.84;;;1.87;76.91
62725;BME280;49026;52.600;4.694;2023-02-14T01:36:02;103477.72;;;1.87;76.45
62725;BME280;49026;52.600;4.694;2023-02-14T01:38:28;103474.31;;;1.88;76.46
62725;BME280;49026;52.600;4.694;2023-02-14T01:40:53;103478.63;;;1.88;76.28
62725;BME280;49026;52.600;4.694;2023-02-14T01:43:19;103470.72;;;1.84;76.03
62725;BME280;49026;52.600;4.694;2023-02-14T01:45:48;103475.78;;;1.81;76.74
62725;BME280;49026;52.600;4.694;2023-02-14T01:48:14;103474.84;;;1.79;76.82
62725;BME280;49026;52.600;4.694;2023-02-14T01:50:44;103468.75;;;1.77;76.93
62725;BME280;49026;52.600;4.694;2023-02-14T01:53:22;103475.66;;;1.78;77.08
62725;BME280;49026;52.600;4.694;2023-02-14T01:55:54;103469.66;;;1.79;77.13
62725;BME280;49026;52.600;4.694;2023-02-14T01:58:24;103473.97;;;1.79;76.72
62725;BME280;49026;52.600;4.694;2023-02-14T02:00:51;103464.38;;;1.76;77.43
62725;BME280;49026;52.600;4.694;2023-02-14T02:03:39;103460.97;;;1.77;77.40
62725;BME280;49026;52.600;4.694;2023-02-14T02:06:11;103456.66;;;1.78;77.15
62725;BME280;49026;52.600;4.694;2023-02-14T02:08:45;103463.63;;;1.79;77.04
62725;BME280;49026;52.600;4.694;2023-02-14T02:11:13;103456.66;;;1.78;76.71
62725;BME280;49026;52.600;4.694;2023-02-14T02:13:38;103461.78;;;1.76;76.72
62725;BME280;49026;52.600;4.694;2023-02-14T02:16:40;103455.66;;;1.74;77.30
62725;BME280;49026;52.600;4.694;2023-02-14T02:27:24;103457.19;;;1.69;77.16
62725;BME280;49026;52.600;4.694;2023-02-14T02:33:11;103462.38;;;1.69;77.49
62725;BME280;49026;52.600;4.694;2023-02-14T02:43:55;103453.28;;;1.58;77.45
62725;BME280;49026;52.600;4.694;2023-02-14T02:46:51;103458.22;;;1.52;77.77
62725;BME280;49026;52.600;4.694;2023-02-14T02:52:41;103459.47;;;1.39;77.78
62725;BME280;49026;52.600;4.694;2023-02-14T02:55:38;103461.91;;;1.36;78.37
62725;BME280;49026;52.600;4.694;2023-02-14T02:58:32;103464.38;;;1.33;78.05
62725;BME280;49026;52.600;4.694;2023-02-14T03:01:02;103459.13;;;1.31;78.38
62725;BME280;49026;52.600;4.694;2023-02-14T03:03:31;103457.22;;;1.27;78.04
62725;BME280;49026;52.600;4.694;2023-02-14T03:06:16;103454.63;;;1.27;77.87
62725;BME280;49026;52.600;4.694;2023-02-14T03:08:43;103455.59;;;1.29;77.46
62725;BME280;49026;52.600;4.694;2023-02-14T03:11:11;103455.75;;;1.32;77.58
62725;BME280;49026;52.600;4.694;2023-02-14T03:14:18;103454.09;;;1.34;77.72
62725;BME280;49026;52.600;4.694;2023-02-14T03:19:53;103455.84;;;1.35;77.59
62725;BME280;49026;52.600;4.694;2023-02-14T03:31:30;103445.38;;;1.32;77.23
62725;BME280;49026;52.600;4.694;2023-02-14T03:34:04;103435.94;;;1.34;77.22
62725;BME280;49026;52.600;4.694;2023-02-14T03:37:15;103437.63;;;1.34;76.64
62725;BME280;49026;52.600;4.694;2023-02-14T03:39:52;103439.22;;;1.30;76.84
62725;BME280;49026;52.600;4.694;2023-02-14T03:42:47;103432.09;;;1.24;76.77
62725;BME280;49026;52.600;4.694;2023-02-14T03:45:25;103431.09;;;1.21;76.47
62725;BME280;49026;52.600;4.694;2023-02-14T03:47:55;103435.22;;;1.16;77.20
62725;BME280;49026;52.600;4.694;2023-02-14T03:50:24;103427.31;;;1.13;76.81
62725;BME280;49026;52.600;4.694;2023-02-14T03:52:52;103422.88;;;1.10;77.32
62725;BME280;49026;52.600;4.694;2023-02-14T03:55:23;103421.88;;;1.06;77.45
62725;BME280;49026;52.600;4.694;2023-02-14T03:58:33;103433.06;;;1.05;77.22
62725;BME280;49026;52.600;4.694;2023-02-14T04:01:03;103423.47;;;1.03;77.10
62725;BME280;49026;52.600;4.694;2023-02-14T04:03:33;103432.03;;;1.02;76.89
62725;BME280;49026;52.600;4.694;2023-02-14T04:06:00;103430.22;;;0.99;77.05
62725;BME280;49026;52.600;4.694;2023-02-14T04:08:28;103435.28;;;0.96;76.64
62725;BME280;49026;52.600;4.694;2023-02-14T04:10:56;103429.97;;;0.93;77.01
62725;BME280;49026;52.600;4.694;2023-02-14T04:13:22;103421.25;;;0.91;77.45
62725;BME280;49026;52.600;4.694;2023-02-14T04:15:48;103430.59;;;0.87;77.02
62725;BME280;49026;52.600;4.694;2023-02-14T04:18:13;103429.59;;;0.84;77.10
62725;BME280;49026;52.600;4.694;2023-02-14T04:20:57;103431.22;;;0.82;77.26
62725;BME280;49026;52.600;4.694;2023-02-14T04:23:24;103427.63;;;0.78;76.90
62725;BME280;49026;52.600;4.694;2023-02-14T04:25:50;103430.06;;;0.75;76.43
62725;BME280;49026;52.600;4.694;2023-02-14T04:28:15;103425.66;;;0.72;77.14
62725;BME280;49026;52.600;4.694;2023-02-14T04:30:43;103423.88;;;0.71;76.93
62725;BME280;49026;52.600;4.694;2023-02-14T04:33:08;103422.13;;;0.70;76.89
62725;BME280;49026;52.600;4.694;2023-02-14T04:35:35;103430.78;;;0.71;77.68
62725;BME280;49026;52.600;4.694;2023-02-14T04:38:03;103421.94;;;0.66;78.31
62725;BME280;49026;52.600;4.694;2023-02-14T04:40:28;103424.47;;;0.64;78.70
62725;BME280;49026;52.600;4.694;2023-02-14T04:42:54;103425.25;;;0.63;79.11
62725;BME280;49026;52.600;4.694;2023-02-14T04:45:19;103425.34;;;0.65;79.77
62725;BME280;49026;52.600;4.694;2023-02-14T04:47:45;103425.41;;;0.66;78.50
62725;BME280;49026;52.600;4.694;2023-02-14T04:50:10;103426.34;;;0.68;78.14
62725;BME280;49026;52.600;4.694;2023-02-14T04:52:36;103418.72;;;0.71;78.43
62725;BME280;49026;52.600;4.694;2023-02-14T04:55:01;103418.72;;;0.71;80.08
62725;BME280;49026;52.600;4.694;2023-02-14T04:57:30;103420.44;;;0.71;79.26
62725;BME280;49026;52.600;4.694;2023-02-14T04:59:55;103427.41;;;0.73;78.80
62725;BME280;49026;52.600;4.694;2023-02-14T05:02:21;103422.22;;;0.72;79.87
62725;BME280;49026;52.600;4.694;2023-02-14T05:04:46;103416.97;;;0.70;80.82
62725;BME280;49026;52.600;4.694;2023-02-14T05:07:11;103420.34;;;0.69;79.75
62725;BME280;49026;52.600;4.694;2023-02-14T05:09:37;103417.72;;;0.68;79.50
62725;BME280;49026;52.600;4.694;2023-02-14T05:12:02;103418.50;;;0.67;78.81
62725;BME280;49026;52.600;4.694;2023-02-14T05:14:27;103415.06;;;0.66;78.47
62725;BME280;49026;52.600;4.694;2023-02-14T05:16:55;103407.16;;;0.63;78.47
62725;BME280;49026;52.600;4.694;2023-02-14T05:19:20;103408.00;;;0.62;78.02
62725;BME280;49026;52.600;4.694;2023-02-14T05:21:45;103411.31;;;0.60;78.22
62725;BME280;49026;52.600;4.694;2023-02-14T05:24:11;103416.28;;;0.55;77.91
62725;BME280;49026;52.600;4.694;2023-02-14T05:26:36;103416.19;;;0.52;77.81
62725;BME280;49026;52.600;4.694;2023-02-14T05:29:04;103415.06;;;0.47;78.34
62725;BME280;49026;52.600;4.694;2023-02-14T05:31:29;103409.66;;;0.41;78.16
62725;BME280;49026;52.600;4.694;2023-02-14T05:33:56;103415.50;;;0.36;77.71
62725;BME280;49026;52.600;4.694;2023-02-14T05:36:21;103426.63;;;0.34;77.66
62725;BME280;49026;52.600;4.694;2023-02-14T05:38:49;103420.34;;;0.29;78.09
62725;BME280;49026;52.600;4.694;2023-02-14T05:41:14;103415.03;;;0.26;77.89
62725;BME280;49026;52.600;4.694;2023-02-14T05:43:40;103409.66;;;0.21;77.33
62725;BME280;49026;52.600;4.694;2023-02-14T05:46:09;103411.31;;;0.19;77.57
62725;BME280;49026;52.600;4.694;2023-02-14T05:48:39;103408.56;;;0.16;77.00
62725;BME280;49026;52.600;4.694;2023-02-14T05:51:08;103402.47;;;0.14;77.12
62725;BME280;49026;52.600;4.694;2023-02-14T05:53:34;103403.13;;;0.10;77.25
62725;BME280;49026;52.600;4.694;2023-02-14T05:56:02;103403.97;;;0.09;76.89
62725;BME280;49026;52.600;4.694;2023-02-14T05:58:30;103406.63;;;0.10;76.89
62725;BME280;49026;52.600;4.694;2023-02-14T06:00:56;103405.72;;;0.10;76.56
62725;BME280;49026;52.600;4.694;2023-02-14T06:03:26;103401.31;;;0.07;76.52
62725;BME280;49026;52.600;4.694;2023-02-14T06:05:51;103399.59;;;0.08;76.40
62725;BME280;49026;52.600;4.694;2023-02-14T06:08:16;103404.78;;;0.08;76.26
62725;BME280;49026;52.600;4.694;2023-02-14T06:10:42;103403.00;;;0.07;76.41
62725;BME280;49026;52.600;4.694;2023-02-14T06:13:07;103407.34;;;0.08;76.45
62725;BME280;49026;52.600;4.694;2023-02-14T06:15:36;103397.28;;;0.14;76.66
62725;BME280;49026;52.600;4.694;2023-02-14T06:18:03;103391.56;;;0.21;76.01
62725;BME280;49026;52.600;4.694;2023-02-14T06:20:31;103388.03;;;0.19;75.93
62725;BME280;49026;52.600;4.694;2023-02-14T06:22:56;103394.56;;;0.11;76.15
62725;BME280;49026;52.600;4.694;2023-02-14T06:25:24;103402.03;;;0.05;76.37
62725;BME280;49026;52.600;4.694;2023-02-14T06:27:50;103395.94;;;0.03;76.01
62725;BME280;49026;52.600;4.694;2023-02-14T06:30:16;103391.44;;;-0.02;76.10
62725;BME280;49026;52.600;4.694;2023-02-14T06:32:42;103390.41;;;-0.05;75.95
62725;BME280;49026;52.600;4.694;2023-02-14T06:35:07;103386.81;;;-0.09;76.22
62725;BME280;49026;52.600;4.694;2023-02-14T06:37:35;103389.19;;;-0.13;76.51
62725;BME280;49026;52.600;4.694;2023-02-14T06:40:03;103390.88;;;-0.14;76.27
62725;BME280;49026;52.600;4.694;2023-02-14T06:42:28;103382.31;;;-0.13;76.33
62725;BME280;49026;52.600;4.694;2023-02-14T06:44:54;103387.50;;;-0.13;76.53
62725;BME280;49026;52.600;4.694;2023-02-14T06:47:21;103380.69;;;-0.11;76.48
62725;BME280;49026;52.600;4.694;2023-02-14T06:49:46;103391.03;;;-0.11;76.46
62725;BME280;49026;52.600;4.694;2023-02-14T06:52:12;103390.28;;;-0.08;76.54
62725;BME280;49026;52.600;4.694;2023-02-14T06:54:37;103386.22;;;-0.03;76.40
62725;BME280;49026;52.600;4.694;2023-02-14T06:57:02;103386.38;;;0.02;76.66
62725;BME280;49026;52.600;4.694;2023-02-14T06:59:28;103389.25;;;0.08;76.56
62725;BME280;49026;52.600;4.694;2023-02-14T07:01:53;103402.31;;;0.11;76.29
62725;BME280;49026;52.600;4.694;2023-02-14T07:04:18;103397.28;;;0.14;76.49
62725;BME280;49026;52.600;4.694;2023-02-14T07:06:44;103400.03;;;0.17;76.20
62725;BME280;49026;52.600;4.694;2023-02-14T07:09:11;103403.47;;;0.17;76.50
62725;BME280;49026;52.600;4.694;2023-02-14T07:11:40;103401.84;;;0.20;76.29
62725;BME280;49026;52.600;4.694;2023-02-14T07:14:06;103405.44;;;0.23;76.24
62725;BME280;49026;52.600;4.694;2023-02-14T07:16:31;103407.28;;;0.26;76.19
62725;BME280;49026;52.600;4.694;2023-02-14T07:18:56;103405.50;;;0.25;76.55
62725;BME280;49026;52.600;4.694;2023-02-14T07:21:21;103404.78;;;0.27;76.90
62725;BME280;49026;52.600;4.694;2023-02-14T07:23:49;103411.91;;;0.33;77.34
62725;BME280;49026;52.600;4.694;2023-02-14T07:26:14;103400.13;;;0.40;77.11
62725;BME280;49026;52.600;4.694;2023-02-14T07:28:47;103404.63;;;0.44;77.48
62725;BME280;49026;52.600;4.694;2023-02-14T07:31:14;103407.38;;;0.48;77.24
62725;BME280;49026;52.600;4.694;2023-02-14T07:33:39;103406.66;;;0.51;77.29
62725;BME280;49026;52.600;4.694;2023-02-14T07:36:08;103409.38;;;0.54;77.28
62725;BME280;49026;52.600;4.694;2023-02-14T07:38:34;103413.84;;;0.58;77.74
62725;BME280;49026;52.600;4.694;2023-02-14T07:41:00;103413.22;;;0.64;77.50
62725;BME280;49026;52.600;4.694;2023-02-14T07:43:26;103412.59;;;0.69;78.00
62725;BME280;49026;52.600;4.694;2023-02-14T07:45:53;103420.75;;;0.79;77.61
62725;BME280;49026;52.600;4.694;2023-02-14T07:48:19;103409.91;;;0.87;77.96
62725;BME280;49026;52.600;4.694;2023-02-14T07:50:44;103404.13;;;0.95;78.08
62725;BME280;49026;52.600;4.694;2023-02-14T07:53:10;103414.81;;;1.02;77.98
62725;BME280;49026;52.600;4.694;2023-02-14T07:55:36;103409.06;;;1.09;77.94
62725;BME280;49026;52.600;4.694;2023-02-14T07:58:01;103411.91;;;1.16;78.39
62725;BME280;49026;52.600;4.694;2023-02-14T08:00:26;103405.19;;;1.21;78.40
62725;BME280;49026;52.600;4.694;2023-02-14T08:02:54;103401.28;;;1.31;78.44
62725;BME280;49026;52.600;4.694;2023-02-14T08:05:20;103405.63;;;1.54;78.62
62725;BME280;49026;52.600;4.694;2023-02-14T08:07:48;103399.91;;;1.85;78.12
62725;BME280;49026;52.600;4.694;2023-02-14T08:10:15;103397.44;;;2.13;78.30
62725;BME280;49026;52.600;4.694;2023-02-14T08:12:41;103396.81;;;2.44;78.46
62725;BME280;49026;52.600;4.694;2023-02-14T08:18:09;103396.06;;;3.00;78.62
62725;BME280;49026;52.600;4.694;2023-02-14T08:20:35;103404.16;;;3.10;78.15
62725;BME280;49026;52.600;4.694;2023-02-14T08:23:00;103407.22;;;3.24;78.46
62725;BME280;49026;52.600;4.694;2023-02-14T08:25:28;103413.72;;;3.39;78.06
62725;BME280;49026;52.600;4.694;2023-02-14T08:27:53;103410.63;;;3.50;78.15
62725;BME280;49026;52.600;4.694;2023-02-14T08:30:20;103408.56;;;3.69;78.42
62725;BME280;49026;52.600;4.694;2023-02-14T08:32:46;103416.31;;;3.96;78.82
62725;BME280;49026;52.600;4.694;2023-02-14T08:35:11;103413.56;;;4.22;78.26
62725;BME280;49026;52.600;4.694;2023-02-14T08:37:36;103411.78;;;4.53;78.65
62725;BME280;49026;52.600;4.694;2023-02-14T08:40:02;103403.91;;;4.85;78.15
62725;BME280;49026;52.600;4.694;2023-02-14T08:42:30;103400.22;;;5.11;77.86
62725;BME280;49026;52.600;4.694;2023-02-14T08:44:55;103407.63;;;5.32;78.18
62725;BME280;49026;52.600;4.694;2023-02-14T08:47:20;103408.00;;;5.49;77.80
62725;BME280;49026;52.600;4.694;2023-02-14T08:49:48;103405.84;;;5.69;78.44
62725;BME280;49026;52.600;4.694;2023-02-14T08:52:14;103408.94;;;5.92;78.72
62725;BME280;49026;52.600;4.694;2023-02-14T08:54:39;103400.59;;;6.09;78.48
62725;BME280;49026;52.600;4.694;2023-02-14T08:57:04;103412.16;;;6.22;77.52
62725;BME280;49026;52.600;4.694;2023-02-14T08:59:30;103408.06;;;6.36;78.71
62725;BME280;49026;52.600;4.694;2023-02-14T09:01:55;103409.19;;;6.49;78.64
62725;BME280;49026;52.600;4.694;2023-02-14T09:04:23;103404.13;;;6.58;78.68
62725;BME280;49026;52.600;4.694;2023-02-14T09:06:48;103406.16;;;6.76;79.44
62725;BME280;49026;52.600;4.694;2023-02-14T09:09:14;103405.75;;;7.03;79.10
62725;BME280;49026;52.600;4.694;2023-02-14T09:11:41;103397.25;;;7.20;78.97
62725;BME280;49026;52.600;4.694;2023-02-14T09:14:07;103395.75;;;7.36;79.18
62725;BME280;49026;52.600;4.694;2023-02-14T09:16:35;103404.09;;;7.71;78.63
62725;BME280;49026;52.600;4.694;2023-02-14T09:19:03;103401.69;;;7.90;78.81
62725;BME280;49026;52.600;4.694;2023-02-14T09:21:29;103400.13;;;8.04;78.72
62725;BME280;49026;52.600;4.694;2023-02-14T09:23:54;103391.63;;;8.27;79.23
62725;BME280;49026;52.600;4.694;2023-02-14T09:26:20;103399.81;;;8.56;79.38
62725;BME280;49026;52.600;4.694;2023-02-14T09:28:46;103398.38;;;8.90;79.17
62725;BME280;49026;52.600;4.694;2023-02-14T09:31:17;103401.19;;;9.21;79.49
62725;BME280;49026;52.600;4.694;2023-02-14T09:33:44;103403.09;;;9.44;78.96
62725;BME280;49026;52.600;4.694;2023-02-14T09:36:31;103404.09;;;9.71;79.10
62725;BME280;49026;52.600;4.694;2023-02-14T09:38:56;103400.66;;;9.90;78.98
62725;BME280;49026;52.600;4.694;2023-02-14T09:44:00;103398.16;;;10.21;78.23
62725;BME280;49026;52.600;4.694;2023-02-14T09:46:28;103386.78;;;10.30;78.38
62725;BME280;49026;52.600;4.694;2023-02-14T09:48:55;103386.81;;;10.42;78.05
62725;BME280;49026;52.600;4.694;2023-02-14T09:51:25;103381.56;;;10.68;78.14
62725;BME280;49026;52.600;4.694;2023-02-14T09:53:59;103376.31;;;10.93;78.44
62725;BME280;49026;52.600;4.694;2023-02-14T09:56:33;103379.75;;;11.26;79.14
62725;BME280;49026;52.600;4.694;2023-02-14T09:59:16;103379.59;;;11.72;78.90
62725;BME280;49026;52.600;4.694;2023-02-14T10:01:52;103377.72;;;12.03;78.51
62725;BME280;49026;52.600;4.694;2023-02-14T10:04:48;103385.53;;;12.19;78.25
62725;BME280;49026;52.600;4.694;2023-02-14T10:15:27;103389.28;;;11.70;82.33
62725;BME280;49026;52.600;4.694;2023-02-14T10:20:45;103383.06;;;11.85;83.82
62725;BME280;49026;52.600;4.694;2023-02-14T10:25:59;103380.44;;;13.03;81.93
62725;BME280;49026;52.600;4.694;2023-02-14T10:28:30;103390.63;;;13.41;81.38
62725;BME280;49026;52.600;4.694;2023-02-14T10:31:20;103392.63;;;13.95;79.79
62725;BME280;49026;52.600;4.694;2023-02-14T10:34:05;103383.47;;;14.18;78.21
62725;BME280;49026;52.600;4.694;2023-02-14T10:41:59;103375.66;;;14.69;77.02
62725;BME280;49026;52.600;4.694;2023-02-14T10:44:41;103379.88;;;14.79;77.10
62725;BME280;49026;52.600;4.694;2023-02-14T10:47:22;103374.16;;;15.04;76.45
62725;BME280;49026;52.600;4.694;2023-02-14T10:50:07;103374.78;;;15.18;76.83
62725;BME280;49026;52.600;4.694;2023-02-14T10:53:09;103376.09;;;15.41;76.91
62725;BME280;49026;52.600;4.694;2023-02-14T10:55:45;103371.94;;;15.70;77.15
62725;BME280;49026;52.600;4.694;2023-02-14T10:58:15;103378.50;;;15.96;74.86
62725;BME280;49026;52.600;4.694;2023-02-14T11:00:55;103374.72;;;16.06;76.37
62725;BME280;49026;52.600;4.694;2023-02-14T11:03:25;103367.31;;;16.20;75.33
62725;BME280;49026;52.600;4.694;2023-02-14T11:05:52;103360.06;;;16.27;76.58
62725;BME280;49026;52.600;4.694;2023-02-14T11:08:26;103359.31;;;16.22;76.23
62725;BME280;49026;52.600;4.694;2023-02-14T11:11:03;103362.56;;;16.35;77.02
62725;BME280;49026;52.600;4.694;2023-02-14T11:16:09;103355.81;;;16.57;76.69
62725;BME280;49026;52.600;4.694;2023-02-14T11:18:36;103349.03;;;16.80;76.74
62725;BME280;49026;52.600;4.694;2023-02-14T11:21:14;103358.50;;;16.90;73.45
62725;BME280;49026;52.600;4.694;2023-02-14T11:23:47;103353.09;;;16.95;74.67
62725;BME280;49026;52.600;4.694;2023-02-14T11:26:22;103347.94;;;16.89;74.30
62725;BME280;49026;52.600;4.694;2023-02-14T11:31:24;103336.13;;;16.66;71.88
62725;BME280;49026;52.600;4.694;2023-02-14T11:33:50;103335.91;;;16.74;69.21
62725;BME280;49026;52.600;4.694;2023-02-14T11:36:18;103334.59;;;16.57;64.70
62725;BME280;49026;52.600;4.694;2023-02-14T11:38:44;103329.38;;;16.53;67.13
62725;BME280;49026;52.600;4.694;2023-02-14T11:41:18;103321.41;;;16.53;66.90
62725;BME280;49026;52.600;4.694;2023-02-14T11:43:44;103320.19;;;16.66;67.62
62725;BME280;49026;52.600;4.694;2023-02-14T11:51:30;103311.91;;;17.11;65.51
62725;BME280;49026;52.600;4.694;2023-02-14T11:53:59;103302.13;;;17.12;68.37
62725;BME280;49026;52.600;4.694;2023-02-14T11:56:45;103301.34;;;17.39;69.41
62725;BME280;49026;52.600;4.694;2023-02-14T11:59:19;103298.31;;;17.52;66.58
62725;BME280;49026;52.600;4.694;2023-02-14T12:01:47;103298.56;;;17.72;68.82
62725;BME280;49026;52.600;4.694;2023-02-14T12:04:17;103294.59;;;17.86;69.84
62725;BME280;49026;52.600;4.694;2023-02-14T12:06:45;103290.91;;;17.91;67.80
62725;BME280;49026;52.600;4.694;2023-02-14T12:11:56;103284.88;;;17.85;61.75
62725;BME280;49026;52.600;4.694;2023-02-14T12:14:25;103285.22;;;17.74;65.35
62725;BME280;49026;52.600;4.694;2023-02-14T12:22:48;103266.25;;;18.13;63.14
62725;BME280;49026;52.600;4.694;2023-02-14T12:25:22;103261.28;;;18.29;65.45
62725;BME280;49026;52.600;4.694;2023-02-14T12:27:59;103256.78;;;18.31;64.51
62725;BME280;49026;52.600;4.694;2023-02-14T12:30:30;103253.28;;;18.29;61.73
62725;BME280;49026;52.600;4.694;2023-02-14T12:32:56;103249.09;;;18.22;64.58
62725;BME280;49026;52.600;4.694;2023-02-14T12:38:29;103250.03;;;18.21;64.65
62725;BME280;49026;52.600;4.694;2023-02-14T12:55:33;103230.59;;;17.92;60.59
62725;BME280;49026;52.600;4.694;2023-02-14T13:09:17;103227.47;;;18.58;61.51
62725;BME280;49026;52.600;4.694;2023-02-14T13:12:12;103220.88;;;18.68;62.31
62725;BME280;49026;52.600;4.694;2023-02-14T13:17:54;103210.75;;;18.78;61.45
62725;BME280;49026;52.600;4.694;2023-02-14T13:22:50;103212.41;;;18.80;63.06
62725;BME280;49026;52.600;4.694;2023-02-14T13:25:23;103212.34;;;18.83;60.97
62725;BME280;49026;52.600;4.694;2023-02-14T13:27:56;103210.53;;;18.84;62.10
62725;BME280;49026;52.600;4.694;2023-02-14T13:30:31;103211.34;;;18.86;60.29
62725;BME280;49026;52.600;4.694;2023-02-14T13:33:02;103208.09;;;18.78;62.17
62725;BME280;49026;52.600;4.694;2023-02-14T13:35:30;103202.66;;;18.79;64.20
62725;BME280;49026;52.600;4.694;2023-02-14T13:37:59;103207.75;;;18.87;62.50
62725;BME280;49026;52.600;4.694;2023-02-14T13:40:26;103197.44;;;18.78;59.37
62725;BME280;49026;52.600;4.694;2023-02-14T13:42:53;103191.78;;;18.62;61.06
62725;BME280;49026;52.600;4.694;2023-02-14T13:50:38;103185.28;;;18.45;64.06
62725;BME280;49026;52.600;4.694;2023-02-14T13:53:12;103184.03;;;17.78;64.61
62725;BME280;49026;52.600;4.694;2023-02-14T13:55:52;103184.13;;;17.19;66.00
62725;BME280;49026;52.600;4.694;2023-02-14T13:58:20;103188.63;;;16.87;66.84
62725;BME280;49026;52.600;4.694;2023-02-14T14:00:52;103188.91;;;16.78;66.63
62725;BME280;49026;52.600;4.694;2023-02-14T14:10:58;103201.16;;;16.82;65.91
62725;BME280;49026;52.600;4.694;2023-02-14T14:13:53;103189.78;;;17.08;65.66
62725;BME280;49026;52.600;4.694;2023-02-14T14:18:52;103181.34;;;17.23;65.19
62725;BME280;49026;52.600;4.694;2023-02-14T14:24:33;103178.28;;;17.37;64.57
62725;BME280;49026;52.600;4.694;2023-02-14T14:27:28;103180.31;;;17.29;64.62
62725;BME280;49026;52.600;4.694;2023-02-14T14:29:58;103178.09;;;17.42;64.88
62725;BME280;49026;52.600;4.694;2023-02-14T14:32:33;103176.84;;;17.54;64.23
62725;BME280;49026;52.600;4.694;2023-02-14T14:35:02;103177.25;;;17.41;64.08
62725;BME280;49026;52.600;4.694;2023-02-14T14:37:31;103173.34;;;17.25;63.82
62725;BME280;49026;52.600;4.694;2023-02-14T14:39:59;103180.59;;;17.20;63.95
62725;BME280;49026;52.600;4.694;2023-02-14T14:42:32;103172.66;;;17.18;63.37
62725;BME280;49026;52.600;4.694;2023-02-14T14:45:01;103182.47;;;16.87;63.68
62725;BME280;49026;52.600;4.694;2023-02-14T14:47:35;103178.19;;;16.81;64.09
62725;BME280;49026;52.600;4.694;2023-02-14T14:50:17;103175.88;;;16.68;63.77
62725;BME280;49026;52.600;4.694;2023-02-14T14:52:48;103167.81;;;16.40;64.08
62725;BME280;49026;52.600;4.694;2023-02-14T14:55:25;103181.75;;;16.16;64.51
62725;BME280;49026;52.600;4.694;2023-02-14T14:57:54;103173.09;;;16.09;64.78
62725;BME280;49026;52.600;4.694;2023-02-14T15:00:25;103168.03;;;16.00;64.83
62725;BME280;49026;52.600;4.694;2023-02-14T15:02:59;103165.13;;;15.73;64.16
62725;BME280;49026;52.600;4.694;2023-02-14T15:05:36;103168.69;;;15.34;65.04
62725;BME280;49026;52.600;4.694;2023-02-14T15:13:38;103169.72;;;14.41;65.32
62725;BME280;49026;52.600;4.694;2023-02-14T15:16:26;103164.63;;;13.84;67.09
62725;BME280;49026;52.600;4.694;2023-02-14T15:18:58;103168.72;;;13.47;67.05
62725;BME280;49026;52.600;4.694;2023-02-14T15:21:25;103173.28;;;13.34;67.65
62725;BME280;49026;52.600;4.694;2023-02-14T15:23:54;103171.69;;;13.21;66.89
62725;BME280;49026;52.600;4.694;2023-02-14T15:26:26;103176.13;;;13.18;66.85
62725;BME280;49026;52.600;4.694;2023-02-14T15:28:59;103171.53;;;13.37;66.44
62725;BME280;49026;52.600;4.694;2023-02-14T15:31:29;103178.41;;;13.47;65.95